CheckWX is a tool to help pilots better visualize weather data.  It is not intended as a substitute for an official pre-flight weather briefing.

15:56:52 UTC

KEHR METAR
Henderson City-County Airport
Henderson, Kentucky, USA
Current

1 hour ago

KEHR 261456Z AUTO 21011KT 10SM CLR 29/20 A3006 RMK AO2 SLP175 60000 T02940200 58006
Observed
May-26 @ 14:56 UTC
Wind
  • 210° at 11 KTS
Visibility
10 SM
Flight Rules
VFR
Cloud Levels
  • Clear skies
Temperature
29°C / 84°F
Dewpoint
20°C / 68°F
Heat Index
31°C / 87°F
Humidity
58%
Altimeter
30.06" Hg
Pressure
1017.92 hPa
Previous

2 hours ago

KEHR 261356Z AUTO 20008KT 10SM CLR 27/20 A3006 RMK AO2 RAE1259 SLP177 P0000 T02720200
Observed
May-26 @ 13:56 UTC
Wind
  • 200° at 8 KTS
Visibility
10 SM
Flight Rules
VFR
Cloud Levels
  • Clear skies
Temperature
27°C / 81°F
Dewpoint
20°C / 68°F
Heat Index
29°C / 84°F
Humidity
66%
Altimeter
30.06" Hg
Pressure
1017.92 hPa
Current Rain
0.01"
Previous

3 hours ago

KEHR 261256Z AUTO 21008KT 10SM -RA SCT055 24/19 A3008 RMK AO2 RAB44 SLP180 P0000 T02390194
Observed
May-26 @ 12:56 UTC
Wind
  • 210° at 8 KTS
Visibility
10 SM
Flight Rules
VFR
Conditions
Light Rain
Cloud Levels
  • Scattered at 5,500' AGL
Temperature
24°C / 75°F
Dewpoint
19°C / 66°F
Humidity
74%
Altimeter
30.08" Hg
Pressure
1018.62 hPa
Current Rain
0.01"